CheckWX is a tool to help pilots better visualize weather data.  It is not intended as a substitute for an official pre-flight weather briefing.

01:05:04 UTC

KEWN TAF
Coastal Carolina Regional Airport
New Bern, North Carolina, USA
KEWN 250532Z 2506/2606 05005KT P6SM OVC005 FM251500 04005KT P6SM BKN015 FM252100 05005KT P6SM BKN025 FM260200 07004KT P6SM BKN015

May-25@
06:00 UTC

May-25 @ 06:00 UTC

May-25@
15:00 UTC

May-25 @ 15:00 UTC

TAF KEWN 250532Z 2506/2606 05005KT P6SM OVC005

Expired

Wind
  • 050° at 5 KTS
Cloud Levels
  • Overcast at 500' AGL

May-25@
15:00 UTC

May-25 @ 15:00 UTC

May-25@
21:00 UTC

May-25 @ 21:00 UTC

FM251500 04005KT P6SM BKN015

Expired

Wind
  • 040° at 5 KTS
Cloud Levels
  • Broken at 1,500' AGL

May-25@
21:00 UTC

May-25 @ 21:00 UTC

May-26@
02:00 UTC

May-26 @ 02:00 UTC

FM252100 05005KT P6SM BKN025

From

From Standard forecast or significant change

Wind
  • 050° at 5 KTS
Cloud Levels
  • Broken at 2,500' AGL

May-26@
02:00 UTC

May-26 @ 02:00 UTC

May-26@
06:00 UTC

May-26 @ 06:00 UTC

FM260200 07004KT P6SM BKN015

From

From Standard forecast or significant change

Wind
  • 070° at 4 KTS
Cloud Levels
  • Broken at 1,500' AGL